sensor_id;sensor_type;location;lat;lon;timestamp;P1;durP1;ratioP1;P2;durP2;ratioP2
8353;SDS011;4656;48.090;11.498;2023-07-02T00:01:24;3.60;;;3.00;;
8353;SDS011;4656;48.090;11.498;2023-07-02T00:03:26;2.92;;;2.65;;
8353;SDS011;4656;48.090;11.498;2023-07-02T00:05:28;2.92;;;2.53;;
8353;SDS011;4656;48.090;11.498;2023-07-02T00:07:31;3.45;;;2.50;;
8353;SDS011;4656;48.090;11.498;2023-07-02T00:09:34;4.10;;;2.58;;
8353;SDS011;4656;48.090;11.498;2023-07-02T00:11:37;4.37;;;3.10;;
8353;SDS011;4656;48.090;11.498;2023-07-02T00:13:41;3.33;;;2.50;;
8353;SDS011;4656;48.090;11.498;2023-07-02T00:15:43;3.95;;;2.25;;
8353;SDS011;4656;48.090;11.498;2023-07-02T00:17:45;5.53;;;2.60;;
8353;SDS011;4656;48.090;11.498;2023-07-02T00:19:49;2.70;;;2.50;;
8353;SDS011;4656;48.090;11.498;2023-07-02T00:21:51;2.47;;;2.28;;
8353;SDS011;4656;48.090;11.498;2023-07-02T00:23:54;2.65;;;2.25;;
8353;SDS011;4656;48.090;11.498;2023-07-02T00:25:57;2.75;;;2.53;;
8353;SDS011;4656;48.090;11.498;2023-07-02T00:27:59;4.10;;;2.55;;
8353;SDS011;4656;48.090;11.498;2023-07-02T00:30:03;2.67;;;2.40;;
8353;SDS011;4656;48.090;11.498;2023-07-02T00:32:05;3.47;;;2.20;;
8353;SDS011;4656;48.090;11.498;2023-07-02T00:34:07;3.47;;;2.70;;
8353;SDS011;4656;48.090;11.498;2023-07-02T00:36:10;3.50;;;2.33;;
8353;SDS011;4656;48.090;11.498;2023-07-02T00:38:14;2.80;;;2.30;;
8353;SDS011;4656;48.090;11.498;2023-07-02T00:40:16;3.10;;;2.53;;
8353;SDS011;4656;48.090;11.498;2023-07-02T00:42:18;2.97;;;2.50;;
8353;SDS011;4656;48.090;11.498;2023-07-02T00:44:21;2.60;;;2.40;;
8353;SDS011;4656;48.090;11.498;2023-07-02T00:46:24;3.05;;;2.70;;
8353;SDS011;4656;48.090;11.498;2023-07-02T00:48:27;3.00;;;2.70;;
8353;SDS011;4656;48.090;11.498;2023-07-02T00:50:29;3.00;;;2.70;;
8353;SDS011;4656;48.090;11.498;2023-07-02T00:52:31;4.25;;;2.85;;
8353;SDS011;4656;48.090;11.498;2023-07-02T00:54:33;3.50;;;2.90;;
8353;SDS011;4656;48.090;11.498;2023-07-02T00:56:36;3.10;;;2.80;;
8353;SDS011;4656;48.090;11.498;2023-07-02T00:58:38;3.40;;;3.10;;
8353;SDS011;4656;48.090;11.498;2023-07-02T01:00:46;3.50;;;2.90;;
8353;SDS011;4656;48.090;11.498;2023-07-02T01:02:56;5.57;;;3.17;;
8353;SDS011;4656;48.090;11.498;2023-07-02T01:04:59;3.10;;;2.47;;
8353;SDS011;4656;48.090;11.498;2023-07-02T01:07:02;3.05;;;2.70;;
8353;SDS011;4656;48.090;11.498;2023-07-02T01:09:09;2.67;;;2.47;;
8353;SDS011;4656;48.090;11.498;2023-07-02T01:11:11;2.70;;;2.50;;
8353;SDS011;4656;48.090;11.498;2023-07-02T01:13:14;3.60;;;2.60;;
8353;SDS011;4656;48.090;11.498;2023-07-02T01:15:30;2.55;;;2.33;;
8353;SDS011;4656;48.090;11.498;2023-07-02T01:17:33;2.40;;;2.20;;
8353;SDS011;4656;48.090;11.498;2023-07-02T01:19:44;2.33;;;2.13;;
8353;SDS011;4656;48.090;11.498;2023-07-02T01:21:51;2.95;;;2.13;;
8353;SDS011;4656;48.090;11.498;2023-07-02T01:23:53;2.07;;;1.97;;
8353;SDS011;4656;48.090;11.498;2023-07-02T01:25:55;2.20;;;2.00;;
8353;SDS011;4656;48.090;11.498;2023-07-02T01:27:59;2.10;;;1.90;;
8353;SDS011;4656;48.090;11.498;2023-07-02T01:30:02;2.65;;;2.20;;
8353;SDS011;4656;48.090;11.498;2023-07-02T01:32:05;2.25;;;2.05;;
8353;SDS011;4656;48.090;11.498;2023-07-02T01:34:08;1.92;;;1.80;;
8353;SDS011;4656;48.090;11.498;2023-07-02T01:36:12;2.17;;;1.98;;
8353;SDS011;4656;48.090;11.498;2023-07-02T01:38:14;2.35;;;1.98;;
8353;SDS011;4656;48.090;11.498;2023-07-02T01:40:16;1.92;;;1.83;;
8353;SDS011;4656;48.090;11.498;2023-07-02T01:42:19;2.10;;;2.00;;
8353;SDS011;4656;48.090;11.498;2023-07-02T01:44:21;2.10;;;1.90;;
8353;SDS011;4656;48.090;11.498;2023-07-02T01:46:24;2.30;;;2.10;;
8353;SDS011;4656;48.090;11.498;2023-07-02T01:48:26;2.10;;;1.90;;
8353;SDS011;4656;48.090;11.498;2023-07-02T01:50:28;2.03;;;1.83;;
8353;SDS011;4656;48.090;11.498;2023-07-02T01:52:31;2.42;;;1.92;;
8353;SDS011;4656;48.090;11.498;2023-07-02T01:54:34;1.90;;;1.80;;
8353;SDS011;4656;48.090;11.498;2023-07-02T01:56:36;1.92;;;1.83;;
8353;SDS011;4656;48.090;11.498;2023-07-02T01:58:39;2.08;;;1.90;;
8353;SDS011;4656;48.090;11.498;2023-07-02T02:00:41;3.50;;;2.10;;
8353;SDS011;4656;48.090;11.498;2023-07-02T02:02:43;2.20;;;2.00;;
8353;SDS011;4656;48.090;11.498;2023-07-02T02:04:45;2.22;;;1.83;;
8353;SDS011;4656;48.090;11.498;2023-07-02T02:06:47;1.90;;;1.80;;
8353;SDS011;4656;48.090;11.498;2023-07-02T02:08:51;3.03;;;2.20;;
8353;SDS011;4656;48.090;11.498;2023-07-02T02:10:53;1.95;;;1.85;;
8353;SDS011;4656;48.090;11.498;2023-07-02T02:12:55;2.35;;;2.15;;
8353;SDS011;4656;48.090;11.498;2023-07-02T02:14:57;2.40;;;2.20;;
8353;SDS011;4656;48.090;11.498;2023-07-02T02:17:00;2.42;;;2.08;;
8353;SDS011;4656;48.090;11.498;2023-07-02T02:19:02;2.20;;;2.00;;
8353;SDS011;4656;48.090;11.498;2023-07-02T02:21:04;4.07;;;2.35;;
8353;SDS011;4656;48.090;11.498;2023-07-02T02:23:07;2.80;;;2.17;;
8353;SDS011;4656;48.090;11.498;2023-07-02T02:25:10;2.25;;;2.05;;
8353;SDS011;4656;48.090;11.498;2023-07-02T02:27:12;2.45;;;2.25;;
8353;SDS011;4656;48.090;11.498;2023-07-02T02:29:14;2.40;;;2.20;;
8353;SDS011;4656;48.090;11.498;2023-07-02T02:31:17;2.50;;;2.30;;
8353;SDS011;4656;48.090;11.498;2023-07-02T02:33:19;2.60;;;2.08;;
8353;SDS011;4656;48.090;11.498;2023-07-02T02:35:21;2.33;;;2.13;;
8353;SDS011;4656;48.090;11.498;2023-07-02T02:37:23;2.70;;;2.40;;
8353;SDS011;4656;48.090;11.498;2023-07-02T02:39:25;2.25;;;2.08;;
8353;SDS011;4656;48.090;11.498;2023-07-02T02:41:29;2.30;;;2.10;;
8353;SDS011;4656;48.090;11.498;2023-07-02T02:43:31;3.25;;;2.30;;
8353;SDS011;4656;48.090;11.498;2023-07-02T02:45:33;3.00;;;2.30;;
8353;SDS011;4656;48.090;11.498;2023-07-02T02:47:35;2.15;;;2.00;;
8353;SDS011;4656;48.090;11.498;2023-07-02T02:49:37;2.30;;;2.10;;
8353;SDS011;4656;48.090;11.498;2023-07-02T02:51:40;2.40;;;2.03;;
8353;SDS011;4656;48.090;11.498;2023-07-02T02:53:43;2.45;;;2.10;;
8353;SDS011;4656;48.090;11.498;2023-07-02T02:55:46;2.97;;;2.17;;
8353;SDS011;4656;48.090;11.498;2023-07-02T02:57:49;2.20;;;2.00;;
8353;SDS011;4656;48.090;11.498;2023-07-02T02:59:51;2.55;;;2.20;;
8353;SDS011;4656;48.090;11.498;2023-07-02T03:01:54;2.53;;;2.33;;
8353;SDS011;4656;48.090;11.498;2023-07-02T03:03:57;2.47;;;1.98;;
8353;SDS011;4656;48.090;11.498;2023-07-02T03:05:59;2.33;;;2.10;;
8353;SDS011;4656;48.090;11.498;2023-07-02T03:08:01;2.17;;;1.98;;
8353;SDS011;4656;48.090;11.498;2023-07-02T03:10:04;3.17;;;2.20;;
8353;SDS011;4656;48.090;11.498;2023-07-02T03:12:06;2.50;;;2.20;;
8353;SDS011;4656;48.090;11.498;2023-07-02T03:14:10;5.18;;;2.22;;
8353;SDS011;4656;48.090;11.498;2023-07-02T03:16:12;2.42;;;2.10;;
8353;SDS011;4656;48.090;11.498;2023-07-02T03:18:15;2.33;;;2.13;;
8353;SDS011;4656;48.090;11.498;2023-07-02T03:20:17;2.92;;;2.50;;
8353;SDS011;4656;48.090;11.498;2023-07-02T03:22:19;3.28;;;2.28;;
8353;SDS011;4656;48.090;11.498;2023-07-02T03:24:22;2.40;;;2.20;;
8353;SDS011;4656;48.090;11.498;2023-07-02T03:26:24;2.60;;;2.30;;
8353;SDS011;4656;48.090;11.498;2023-07-02T03:28:26;2.45;;;2.20;;
8353;SDS011;4656;48.090;11.498;2023-07-02T03:30:29;3.00;;;2.42;;
8353;SDS011;4656;48.090;11.498;2023-07-02T03:32:32;4.72;;;2.50;;
8353;SDS011;4656;48.090;11.498;2023-07-02T03:34:34;3.25;;;2.70;;
8353;SDS011;4656;48.090;11.498;2023-07-02T03:36:36;4.45;;;2.95;;
8353;SDS011;4656;48.090;11.498;2023-07-02T03:38:38;8.02;;;3.60;;
8353;SDS011;4656;48.090;11.498;2023-07-02T03:40:40;5.63;;;3.40;;
8353;SDS011;4656;48.090;11.498;2023-07-02T03:42:43;5.43;;;3.92;;
8353;SDS011;4656;48.090;11.498;2023-07-02T03:44:45;8.13;;;3.65;;
8353;SDS011;4656;48.090;11.498;2023-07-02T03:46:48;4.53;;;3.90;;
8353;SDS011;4656;48.090;11.498;2023-07-02T03:48:50;5.15;;;3.88;;
8353;SDS011;4656;48.090;11.498;2023-07-02T03:50:52;4.88;;;3.85;;
8353;SDS011;4656;48.090;11.498;2023-07-02T03:52:55;3.90;;;3.50;;
8353;SDS011;4656;48.090;11.498;2023-07-02T03:54:57;5.57;;;3.80;;
8353;SDS011;4656;48.090;11.498;2023-07-02T03:56:59;7.50;;;4.30;;
8353;SDS011;4656;48.090;11.498;2023-07-02T03:59:02;6.95;;;3.90;;
8353;SDS011;4656;48.090;11.498;2023-07-02T04:01:04;4.60;;;3.90;;
8353;SDS011;4656;48.090;11.498;2023-07-02T04:03:07;5.27;;;3.90;;
8353;SDS011;4656;48.090;11.498;2023-07-02T04:05:10;8.18;;;4.20;;
8353;SDS011;4656;48.090;11.498;2023-07-02T04:07:12;5.97;;;4.30;;
8353;SDS011;4656;48.090;11.498;2023-07-02T04:09:14;6.18;;;4.07;;
8353;SDS011;4656;48.090;11.498;2023-07-02T04:11:18;4.95;;;3.88;;
8353;SDS011;4656;48.090;11.498;2023-07-02T04:13:20;5.93;;;3.90;;
8353;SDS011;4656;48.090;11.498;2023-07-02T04:15:22;5.35;;;4.43;;
8353;SDS011;4656;48.090;11.498;2023-07-02T04:17:26;8.40;;;4.38;;
8353;SDS011;4656;48.090;11.498;2023-07-02T04:19:30;5.38;;;4.30;;
8353;SDS011;4656;48.090;11.498;2023-07-02T04:21:32;5.57;;;4.10;;
8353;SDS011;4656;48.090;11.498;2023-07-02T04:23:34;6.57;;;4.20;;
8353;SDS011;4656;48.090;11.498;2023-07-02T04:25:36;7.13;;;4.13;;
8353;SDS011;4656;48.090;11.498;2023-07-02T04:27:38;6.78;;;3.90;;
8353;SDS011;4656;48.090;11.498;2023-07-02T04:29:40;5.90;;;3.93;;
8353;SDS011;4656;48.090;11.498;2023-07-02T04:31:43;4.75;;;4.00;;
8353;SDS011;4656;48.090;11.498;2023-07-02T04:33:45;6.10;;;4.60;;
8353;SDS011;4656;48.090;11.498;2023-07-02T04:35:48;7.60;;;4.10;;
8353;SDS011;4656;48.090;11.498;2023-07-02T04:37:51;6.40;;;4.60;;
8353;SDS011;4656;48.090;11.498;2023-07-02T04:39:53;7.38;;;4.38;;
8353;SDS011;4656;48.090;11.498;2023-07-02T04:41:55;5.82;;;4.40;;
8353;SDS011;4656;48.090;11.498;2023-07-02T04:43:57;6.03;;;4.80;;
8353;SDS011;4656;48.090;11.498;2023-07-02T04:45:59;5.75;;;4.10;;
8353;SDS011;4656;48.090;11.498;2023-07-02T04:48:02;7.57;;;4.30;;
8353;SDS011;4656;48.090;11.498;2023-07-02T04:50:04;6.38;;;4.00;;
8353;SDS011;4656;48.090;11.498;2023-07-02T04:52:08;7.45;;;4.03;;
8353;SDS011;4656;48.090;11.498;2023-07-02T04:54:10;5.43;;;3.75;;
8353;SDS011;4656;48.090;11.498;2023-07-02T04:56:12;5.13;;;4.10;;
8353;SDS011;4656;48.090;11.498;2023-07-02T04:58:14;7.03;;;3.95;;
8353;SDS011;4656;48.090;11.498;2023-07-02T05:00:17;6.00;;;4.10;;
8353;SDS011;4656;48.090;11.498;2023-07-02T05:02:19;6.88;;;4.38;;
8353;SDS011;4656;48.090;11.498;2023-07-02T05:04:21;6.43;;;4.40;;
8353;SDS011;4656;48.090;11.498;2023-07-02T05:06:24;5.35;;;3.90;;
8353;SDS011;4656;48.090;11.498;2023-07-02T05:08:27;6.97;;;4.20;;
8353;SDS011;4656;48.090;11.498;2023-07-02T05:10:29;4.50;;;3.95;;
8353;SDS011;4656;48.090;11.498;2023-07-02T05:12:32;6.47;;;3.90;;
8353;SDS011;4656;48.090;11.498;2023-07-02T05:14:34;6.75;;;4.10;;
8353;SDS011;4656;48.090;11.498;2023-07-02T05:16:36;7.30;;;3.92;;
8353;SDS011;4656;48.090;11.498;2023-07-02T05:18:38;6.40;;;4.35;;
8353;SDS011;4656;48.090;11.498;2023-07-02T05:20:41;5.07;;;3.83;;
8353;SDS011;4656;48.090;11.498;2023-07-02T05:22:43;5.05;;;3.78;;
8353;SDS011;4656;48.090;11.498;2023-07-02T05:24:47;7.47;;;4.10;;
8353;SDS011;4656;48.090;11.498;2023-07-02T05:26:50;4.32;;;3.90;;
8353;SDS011;4656;48.090;11.498;2023-07-02T05:28:52;5.00;;;4.05;;
8353;SDS011;4656;48.090;11.498;2023-07-02T05:30:54;6.22;;;3.80;;
8353;SDS011;4656;48.090;11.498;2023-07-02T05:32:56;5.75;;;3.60;;
8353;SDS011;4656;48.090;11.498;2023-07-02T05:34:58;5.43;;;3.63;;
8353;SDS011;4656;48.090;11.498;2023-07-02T05:37:01;4.50;;;3.40;;
8353;SDS011;4656;48.090;11.498;2023-07-02T05:39:03;4.60;;;3.50;;
8353;SDS011;4656;48.090;11.498;2023-07-02T05:41:06;6.45;;;3.50;;
8353;SDS011;4656;48.090;11.498;2023-07-02T05:43:10;4.57;;;3.50;;
8353;SDS011;4656;48.090;11.498;2023-07-02T05:45:12;5.00;;;3.70;;
8353;SDS011;4656;48.090;11.498;2023-07-02T05:47:14;4.07;;;3.35;;
8353;SDS011;4656;48.090;11.498;2023-07-02T05:49:16;4.43;;;3.40;;
8353;SDS011;4656;48.090;11.498;2023-07-02T05:51:19;4.80;;;3.50;;
8353;SDS011;4656;48.090;11.498;2023-07-02T05:53:22;6.50;;;3.55;;
8353;SDS011;4656;48.090;11.498;2023-07-02T05:55:24;5.57;;;3.47;;
8353;SDS011;4656;48.090;11.498;2023-07-02T05:57:28;5.32;;;3.40;;
8353;SDS011;4656;48.090;11.498;2023-07-02T05:59:30;5.15;;;3.35;;
8353;SDS011;4656;48.090;11.498;2023-07-02T06:01:32;4.65;;;3.70;;
8353;SDS011;4656;48.090;11.498;2023-07-02T06:03:34;4.55;;;3.67;;
8353;SDS011;4656;48.090;11.498;2023-07-02T06:05:37;4.00;;;3.65;;
8353;SDS011;4656;48.090;11.498;2023-07-02T06:07:39;6.35;;;3.80;;
8353;SDS011;4656;48.090;11.498;2023-07-02T06:09:42;6.13;;;3.40;;
8353;SDS011;4656;48.090;11.498;2023-07-02T06:11:44;4.85;;;3.85;;
8353;SDS011;4656;48.090;11.498;2023-07-02T06:13:47;4.50;;;3.22;;
8353;SDS011;4656;48.090;11.498;2023-07-02T06:15:49;6.07;;;3.45;;
8353;SDS011;4656;48.090;11.498;2023-07-02T06:17:51;5.47;;;3.55;;
8353;SDS011;4656;48.090;11.498;2023-07-02T06:19:54;6.28;;;4.03;;
8353;SDS011;4656;48.090;11.498;2023-07-02T06:21:56;5.00;;;3.70;;
8353;SDS011;4656;48.090;11.498;2023-07-02T06:23:58;4.80;;;3.72;;
8353;SDS011;4656;48.090;11.498;2023-07-02T06:26:02;4.57;;;3.58;;
8353;SDS011;4656;48.090;11.498;2023-07-02T06:28:04;4.30;;;3.40;;
8353;SDS011;4656;48.090;11.498;2023-07-02T06:30:08;6.13;;;3.70;;
8353;SDS011;4656;48.090;11.498;2023-07-02T06:32:10;5.13;;;3.63;;
8353;SDS011;4656;48.090;11.498;2023-07-02T06:34:12;4.90;;;3.67;;
8353;SDS011;4656;48.090;11.498;2023-07-02T06:36:15;4.23;;;3.30;;
8353;SDS011;4656;48.090;11.498;2023-07-02T06:38:17;4.32;;;3.20;;
8353;SDS011;4656;48.090;11.498;2023-07-02T06:40:20;6.53;;;3.33;;
8353;SDS011;4656;48.090;11.498;2023-07-02T06:42:22;8.02;;;3.47;;
8353;SDS011;4656;48.090;11.498;2023-07-02T06:44:24;7.22;;;3.92;;
8353;SDS011;4656;48.090;11.498;2023-07-02T06:46:28;5.15;;;4.03;;
8353;SDS011;4656;48.090;11.498;2023-07-02T06:48:30;5.10;;;3.55;;
8353;SDS011;4656;48.090;11.498;2023-07-02T06:50:33;6.82;;;3.88;;
8353;SDS011;4656;48.090;11.498;2023-07-02T06:52:35;5.13;;;3.58;;
8353;SDS011;4656;48.090;11.498;2023-07-02T06:54:38;6.60;;;3.80;;
8353;SDS011;4656;48.090;11.498;2023-07-02T06:56:41;12.05;;;4.70;;
8353;SDS011;4656;48.090;11.498;2023-07-02T06:58:43;6.78;;;4.10;;
8353;SDS011;4656;48.090;11.498;2023-07-02T07:00:45;5.32;;;4.35;;
8353;SDS011;4656;48.090;11.498;2023-07-02T07:02:49;6.60;;;4.17;;
8353;SDS011;4656;48.090;11.498;2023-07-02T07:04:51;6.15;;;4.07;;
8353;SDS011;4656;48.090;11.498;2023-07-02T07:06:53;6.23;;;4.30;;
8353;SDS011;4656;48.090;11.498;2023-07-02T07:08:56;6.53;;;4.63;;
8353;SDS011;4656;48.090;11.498;2023-07-02T07:10:58;7.65;;;4.30;;
8353;SDS011;4656;48.090;11.498;2023-07-02T07:13:00;7.47;;;4.20;;
8353;SDS011;4656;48.090;11.498;2023-07-02T07:15:03;7.68;;;4.40;;
8353;SDS011;4656;48.090;11.498;2023-07-02T07:17:05;5.80;;;4.37;;
8353;SDS011;4656;48.090;11.498;2023-07-02T07:19:09;7.75;;;4.80;;
8353;SDS011;4656;48.090;11.498;2023-07-02T07:21:11;8.38;;;4.60;;
8353;SDS011;4656;48.090;11.498;2023-07-02T07:23:15;8.13;;;4.40;;
8353;SDS011;4656;48.090;11.498;2023-07-02T07:25:18;6.40;;;4.40;;
8353;SDS011;4656;48.090;11.498;2023-07-02T07:27:20;7.95;;;4.70;;
8353;SDS011;4656;48.090;11.498;2023-07-02T07:29:22;6.55;;;4.00;;
8353;SDS011;4656;48.090;11.498;2023-07-02T07:31:24;7.47;;;4.40;;
8353;SDS011;4656;48.090;11.498;2023-07-02T07:33:27;4.90;;;3.83;;
8353;SDS011;4656;48.090;11.498;2023-07-02T07:35:30;5.90;;;3.83;;
8353;SDS011;4656;48.090;11.498;2023-07-02T07:37:32;6.32;;;4.13;;
8353;SDS011;4656;48.090;11.498;2023-07-02T07:39:35;5.50;;;4.07;;
8353;SDS011;4656;48.090;11.498;2023-07-02T07:41:37;5.07;;;3.58;;
8353;SDS011;4656;48.090;11.498;2023-07-02T07:43:39;4.00;;;2.95;;
8353;SDS011;4656;48.090;11.498;2023-07-02T07:45:41;0.80;;;0.50;;
8353;SDS011;4656;48.090;11.498;2023-07-02T07:47:44;1.40;;;0.30;;
8353;SDS011;4656;48.090;11.498;2023-07-02T07:49:46;0.20;;;0.20;;
8353;SDS011;4656;48.090;11.498;2023-07-02T07:51:49;0.10;;;0.10;;
8353;SDS011;4656;48.090;11.498;2023-07-02T07:53:52;0.17;;;0.17;;
8353;SDS011;4656;48.090;11.498;2023-07-02T07:55:54;0.60;;;0.50;;
8353;SDS011;4656;48.090;11.498;2023-07-02T07:57:56;0.22;;;0.22;;
8353;SDS011;4656;48.090;11.498;2023-07-02T07:59:58;0.20;;;0.20;;
8353;SDS011;4656;48.090;11.498;2023-07-02T08:02:00;0.30;;;0.30;;
8353;SDS011;4656;48.090;11.498;2023-07-02T08:04:03;0.30;;;0.30;;
8353;SDS011;4656;48.090;11.498;2023-07-02T08:06:05;0.20;;;0.20;;
8353;SDS011;4656;48.090;11.498;2023-07-02T08:08:09;0.40;;;0.40;;
8353;SDS011;4656;48.090;11.498;2023-07-02T08:10:11;0.30;;;0.30;;
8353;SDS011;4656;48.090;11.498;2023-07-02T08:12:13;0.40;;;0.40;;
8353;SDS011;4656;48.090;11.498;2023-07-02T08:14:15;0.20;;;0.20;;
8353;SDS011;4656;48.090;11.498;2023-07-02T08:16:18;0.03;;;0.03;;
8353;SDS011;4656;48.090;11.498;2023-07-02T08:18:20;0.10;;;0.10;;
8353;SDS011;4656;48.090;11.498;2023-07-02T08:20:22;0.20;;;0.20;;
8353;SDS011;4656;48.090;11.498;2023-07-02T08:22:24;0.20;;;0.20;;
8353;SDS011;4656;48.090;11.498;2023-07-02T08:24:28;0.10;;;0.10;;
8353;SDS011;4656;48.090;11.498;2023-07-02T08:26:30;0.20;;;0.20;;
8353;SDS011;4656;48.090;11.498;2023-07-02T08:28:33;0.13;;;0.13;;
8353;SDS011;4656;48.090;11.498;2023-07-02T08:30:35;0.20;;;0.20;;
8353;SDS011;4656;48.090;11.498;2023-07-02T08:32:37;0.30;;;0.30;;
8353;SDS011;4656;48.090;11.498;2023-07-02T08:34:39;0.10;;;0.10;;
8353;SDS011;4656;48.090;11.498;2023-07-02T08:36:41;0.28;;;0.28;;
8353;SDS011;4656;48.090;11.498;2023-07-02T08:38:44;0.17;;;0.17;;
8353;SDS011;4656;48.090;11.498;2023-07-02T08:40:47;0.15;;;0.15;;
8353;SDS011;4656;48.090;11.498;2023-07-02T08:42:50;0.20;;;0.20;;
8353;SDS011;4656;48.090;11.498;2023-07-02T08:44:53;0.40;;;0.40;;
8353;SDS011;4656;48.090;11.498;2023-07-02T08:46:55;0.20;;;0.20;;
8353;SDS011;4656;48.090;11.498;2023-07-02T08:48:57;0.15;;;0.15;;
8353;SDS011;4656;48.090;11.498;2023-07-02T08:50:59;0.20;;;0.20;;
8353;SDS011;4656;48.090;11.498;2023-07-02T08:53:02;0.22;;;0.22;;
8353;SDS011;4656;48.090;11.498;2023-07-02T08:55:04;0.40;;;0.40;;
8353;SDS011;4656;48.090;11.498;2023-07-02T08:57:08;0.35;;;0.28;;
8353;SDS011;4656;48.090;11.498;2023-07-02T08:59:10;0.20;;;0.20;;
8353;SDS011;4656;48.090;11.498;2023-07-02T09:01:13;0.13;;;0.13;;
8353;SDS011;4656;48.090;11.498;2023-07-02T09:03:15;0.20;;;0.20;;
8353;SDS011;4656;48.090;11.498;2023-07-02T09:05:18;0.20;;;0.20;;
8353;SDS011;4656;48.090;11.498;2023-07-02T09:07:20;0.20;;;0.20;;
8353;SDS011;4656;48.090;11.498;2023-07-02T09:09:22;0.20;;;0.20;;
8353;SDS011;4656;48.090;11.498;2023-07-02T09:11:24;0.45;;;0.45;;
8353;SDS011;4656;48.090;11.498;2023-07-02T09:13:27;0.20;;;0.20;;
8353;SDS011;4656;48.090;11.498;2023-07-02T09:15:34;0.30;;;0.30;;
8353;SDS011;4656;48.090;11.498;2023-07-02T09:17:37;0.20;;;0.20;;
8353;SDS011;4656;48.090;11.498;2023-07-02T09:19:49;0.10;;;0.10;;
8353;SDS011;4656;48.090;11.498;2023-07-02T09:21:51;0.38;;;0.30;;
8353;SDS011;4656;48.090;11.498;2023-07-02T09:23:54;0.20;;;0.20;;
8353;SDS011;4656;48.090;11.498;2023-07-02T09:25:56;0.10;;;0.10;;
8353;SDS011;4656;48.090;11.498;2023-07-02T09:27:58;0.60;;;0.25;;
8353;SDS011;4656;48.090;11.498;2023-07-02T09:30:06;0.30;;;0.30;;
8353;SDS011;4656;48.090;11.498;2023-07-02T09:32:09;0.30;;;0.30;;
8353;SDS011;4656;48.090;11.498;2023-07-02T09:34:11;0.90;;;0.90;;
8353;SDS011;4656;48.090;11.498;2023-07-02T09:36:13;0.15;;;0.15;;
8353;SDS011;4656;48.090;11.498;2023-07-02T09:38:18;0.77;;;0.60;;
8353;SDS011;4656;48.090;11.498;2023-07-02T09:40:21;0.22;;;0.22;;
8353;SDS011;4656;48.090;11.498;2023-07-02T09:42:25;0.30;;;0.30;;
8353;SDS011;4656;48.090;11.498;2023-07-02T09:44:28;0.20;;;0.20;;
8353;SDS011;4656;48.090;11.498;2023-07-02T09:46:32;0.20;;;0.20;;
8353;SDS011;4656;48.090;11.498;2023-07-02T09:48:34;0.10;;;0.10;;
8353;SDS011;4656;48.090;11.498;2023-07-02T09:50:37;0.25;;;0.25;;
8353;SDS011;4656;48.090;11.498;2023-07-02T09:52:40;0.17;;;0.17;;
8353;SDS011;4656;48.090;11.498;2023-07-02T09:54:42;0.20;;;0.20;;
8353;SDS011;4656;48.090;11.498;2023-07-02T09:56:45;0.20;;;0.20;;
8353;SDS011;4656;48.090;11.498;2023-07-02T09:58:47;0.70;;;0.70;;
8353;SDS011;4656;48.090;11.498;2023-07-02T10:00:49;0.10;;;0.10;;
8353;SDS011;4656;48.090;11.498;2023-07-02T10:02:53;0.30;;;0.30;;
8353;SDS011;4656;48.090;11.498;2023-07-02T10:04:55;0.20;;;0.20;;
8353;SDS011;4656;48.090;11.498;2023-07-02T10:06:57;0.40;;;0.40;;
8353;SDS011;4656;48.090;11.498;2023-07-02T10:09:00;0.32;;;0.32;;
8353;SDS011;4656;48.090;11.498;2023-07-02T10:11:06;1.70;;;0.50;;
8353;SDS011;4656;48.090;11.498;2023-07-02T10:13:09;0.40;;;0.40;;
8353;SDS011;4656;48.090;11.498;2023-07-02T10:15:11;0.50;;;0.50;;
8353;SDS011;4656;48.090;11.498;2023-07-02T10:17:22;0.33;;;0.33;;
8353;SDS011;4656;48.090;11.498;2023-07-02T10:19:27;1.00;;;0.30;;
8353;SDS011;4656;48.090;11.498;2023-07-02T10:21:29;0.30;;;0.30;;
8353;SDS011;4656;48.090;11.498;2023-07-02T10:23:34;0.30;;;0.30;;
8353;SDS011;4656;48.090;11.498;2023-07-02T10:25:37;0.22;;;0.22;;
8353;SDS011;4656;48.090;11.498;2023-07-02T10:27:39;0.20;;;0.20;;
8353;SDS011;4656;48.090;11.498;2023-07-02T10:29:48;0.20;;;0.20;;
8353;SDS011;4656;48.090;11.498;2023-07-02T10:31:51;0.60;;;0.60;;
8353;SDS011;4656;48.090;11.498;2023-07-02T10:33:53;0.10;;;0.10;;
8353;SDS011;4656;48.090;11.498;2023-07-02T10:35:57;0.63;;;0.63;;
8353;SDS011;4656;48.090;11.498;2023-07-02T10:37:59;1.20;;;0.70;;
8353;SDS011;4656;48.090;11.498;2023-07-02T10:40:02;0.55;;;0.55;;
8353;SDS011;4656;48.090;11.498;2023-07-02T10:42:06;0.43;;;0.43;;
8353;SDS011;4656;48.090;11.498;2023-07-02T10:44:09;0.57;;;0.57;;
8353;SDS011;4656;48.090;11.498;2023-07-02T10:46:17;0.90;;;0.40;;
8353;SDS011;4656;48.090;11.498;2023-07-02T10:48:20;0.20;;;0.20;;
8353;SDS011;4656;48.090;11.498;2023-07-02T10:50:22;1.15;;;0.88;;
8353;SDS011;4656;48.090;11.498;2023-07-02T10:52:27;0.70;;;0.52;;
8353;SDS011;4656;48.090;11.498;2023-07-02T10:54:39;0.40;;;0.40;;
8353;SDS011;4656;48.090;11.498;2023-07-02T10:56:41;0.30;;;0.30;;
8353;SDS011;4656;48.090;11.498;2023-07-02T10:58:44;0.70;;;0.70;;
8353;SDS011;4656;48.090;11.498;2023-07-02T11:00:46;0.57;;;0.52;;
8353;SDS011;4656;48.090;11.498;2023-07-02T11:02:49;0.28;;;0.28;;
8353;SDS011;4656;48.090;11.498;2023-07-02T11:04:51;0.60;;;0.60;;
8353;SDS011;4656;48.090;11.498;2023-07-02T11:06:54;0.43;;;0.43;;
8353;SDS011;4656;48.090;11.498;2023-07-02T11:08:58;0.30;;;0.30;;
8353;SDS011;4656;48.090;11.498;2023-07-02T11:11:05;0.40;;;0.40;;
8353;SDS011;4656;48.090;11.498;2023-07-02T11:13:10;0.57;;;0.57;;
8353;SDS011;4656;48.090;11.498;2023-07-02T11:15:13;0.70;;;0.50;;
8353;SDS011;4656;48.090;11.498;2023-07-02T11:17:15;1.45;;;1.35;;
8353;SDS011;4656;48.090;11.498;2023-07-02T11:19:18;0.40;;;0.40;;
8353;SDS011;4656;48.090;11.498;2023-07-02T11:21:20;0.70;;;0.70;;
8353;SDS011;4656;48.090;11.498;2023-07-02T11:23:23;0.70;;;0.50;;
8353;SDS011;4656;48.090;11.498;2023-07-02T11:25:28;0.30;;;0.30;;
8353;SDS011;4656;48.090;11.498;2023-07-02T11:27:30;1.50;;;0.43;;
8353;SDS011;4656;48.090;11.498;2023-07-02T11:29:33;0.88;;;0.88;;
8353;SDS011;4656;48.090;11.498;2023-07-02T11:31:35;0.43;;;0.43;;
8353;SDS011;4656;48.090;11.498;2023-07-02T11:33:38;0.32;;;0.32;;
8353;SDS011;4656;48.090;11.498;2023-07-02T11:35:41;0.30;;;0.30;;
8353;SDS011;4656;48.090;11.498;2023-07-02T11:37:43;1.40;;;0.60;;
8353;SDS011;4656;48.090;11.498;2023-07-02T11:39:46;0.52;;;0.52;;
8353;SDS011;4656;48.090;11.498;2023-07-02T11:41:49;0.50;;;0.50;;
8353;SDS011;4656;48.090;11.498;2023-07-02T11:43:51;0.50;;;0.50;;
8353;SDS011;4656;48.090;11.498;2023-07-02T11:45:54;0.47;;;0.47;;
8353;SDS011;4656;48.090;11.498;2023-07-02T11:47:58;0.40;;;0.40;;
8353;SDS011;4656;48.090;11.498;2023-07-02T11:50:00;0.50;;;0.50;;
8353;SDS011;4656;48.090;11.498;2023-07-02T11:52:02;1.40;;;0.70;;
8353;SDS011;4656;48.090;11.498;2023-07-02T11:54:05;0.20;;;0.20;;
8353;SDS011;4656;48.090;11.498;2023-07-02T11:56:07;0.50;;;0.50;;
8353;SDS011;4656;48.090;11.498;2023-07-02T11:58:11;0.40;;;0.40;;
8353;SDS011;4656;48.090;11.498;2023-07-02T12:00:13;1.20;;;1.10;;
8353;SDS011;4656;48.090;11.498;2023-07-02T12:02:16;0.50;;;0.50;;
8353;SDS011;4656;48.090;11.498;2023-07-02T12:04:18;0.60;;;0.60;;
8353;SDS011;4656;48.090;11.498;2023-07-02T12:06:20;0.52;;;0.52;;
8353;SDS011;4656;48.090;11.498;2023-07-02T12:08:22;1.05;;;0.95;;
8353;SDS011;4656;48.090;11.498;2023-07-02T12:10:25;0.65;;;0.65;;
8353;SDS011;4656;48.090;11.498;2023-07-02T12:12:27;0.40;;;0.40;;
8353;SDS011;4656;48.090;11.498;2023-07-02T12:14:30;0.30;;;0.30;;
8353;SDS011;4656;48.090;11.498;2023-07-02T12:16:33;0.38;;;0.38;;
8353;SDS011;4656;48.090;11.498;2023-07-02T12:18:35;0.30;;;0.30;;
8353;SDS011;4656;48.090;11.498;2023-07-02T12:20:38;0.50;;;0.50;;
8353;SDS011;4656;48.090;11.498;2023-07-02T12:22:40;0.85;;;0.85;;
8353;SDS011;4656;48.090;11.498;2023-07-02T12:24:44;0.50;;;0.50;;
8353;SDS011;4656;48.090;11.498;2023-07-02T12:26:46;0.82;;;0.75;;
8353;SDS011;4656;48.090;11.498;2023-07-02T12:28:48;0.73;;;0.73;;
8353;SDS011;4656;48.090;11.498;2023-07-02T12:30:52;1.98;;;1.02;;